sensor_id;sensor_type;location;lat;lon;timestamp;pressure;altitude;pressure_sealevel;temperature;humidity
39954;BME280;25631;51.516;-0.470;2023-03-29T00:01:30;101141.14;;;7.41;47.59
39954;BME280;25631;51.516;-0.470;2023-03-29T00:04:07;101135.72;;;7.37;47.55
39954;BME280;25631;51.516;-0.470;2023-03-29T00:06:44;101134.44;;;7.49;47.63
39954;BME280;25631;51.516;-0.470;2023-03-29T00:09:21;101133.84;;;7.50;47.75
39954;BME280;25631;51.516;-0.470;2023-03-29T00:11:58;101137.50;;;7.40;47.80
39954;BME280;25631;51.516;-0.470;2023-03-29T00:14:34;101134.48;;;7.49;47.85
39954;BME280;25631;51.516;-0.470;2023-03-29T00:17:11;101137.72;;;7.45;48.01
39954;BME280;25631;51.516;-0.470;2023-03-29T00:19:47;101131.67;;;7.21;48.07
39954;BME280;25631;51.516;-0.470;2023-03-29T00:22:24;101129.71;;;7.29;48.14
39954;BME280;25631;51.516;-0.470;2023-03-29T00:25:00;101129.66;;;7.25;48.33
39954;BME280;25631;51.516;-0.470;2023-03-29T00:27:38;101125.76;;;7.19;48.40
39954;BME280;25631;51.516;-0.470;2023-03-29T00:30:15;101124.13;;;7.15;48.55
39954;BME280;25631;51.516;-0.470;2023-03-29T00:32:51;101114.38;;;7.21;48.36
39954;BME280;25631;51.516;-0.470;2023-03-29T00:35:27;101114.20;;;7.34;48.62
39954;BME280;25631;51.516;-0.470;2023-03-29T00:38:04;101109.32;;;7.22;48.62
39954;BME280;25631;51.516;-0.470;2023-03-29T00:40:42;101108.19;;;7.22;48.90
39954;BME280;25631;51.516;-0.470;2023-03-29T00:43:19;101109.12;;;7.08;48.99
39954;BME280;25631;51.516;-0.470;2023-03-29T00:45:55;101107.47;;;7.26;48.73
39954;BME280;25631;51.516;-0.470;2023-03-29T00:48:32;101111.24;;;7.31;48.60
39954;BME280;25631;51.516;-0.470;2023-03-29T00:51:10;101105.10;;;7.30;48.72
39954;BME280;25631;51.516;-0.470;2023-03-29T00:53:51;101102.51;;;7.37;48.68
39954;BME280;25631;51.516;-0.470;2023-03-29T00:56:31;101104.13;;;7.41;48.81
39954;BME280;25631;51.516;-0.470;2023-03-29T00:59:11;101105.95;;;7.48;48.61
39954;BME280;25631;51.516;-0.470;2023-03-29T01:01:50;101107.56;;;7.18;48.67
39954;BME280;25631;51.516;-0.470;2023-03-29T01:04:35;101113.39;;;7.47;48.62
39954;BME280;25631;51.516;-0.470;2023-03-29T01:07:16;101110.79;;;7.31;48.60
39954;BME280;25631;51.516;-0.470;2023-03-29T01:10:01;101109.40;;;7.64;48.59
39954;BME280;25631;51.516;-0.470;2023-03-29T01:12:42;101107.71;;;7.69;48.72
39954;BME280;25631;51.516;-0.470;2023-03-29T01:15:23;101102.02;;;7.46;49.04
39954;BME280;25631;51.516;-0.470;2023-03-29T01:18:01;101097.18;;;7.03;49.23
39954;BME280;25631;51.516;-0.470;2023-03-29T01:20:45;101097.98;;;7.52;49.00
39954;BME280;25631;51.516;-0.470;2023-03-29T01:23:40;101080.79;;;7.24;49.20
39954;BME280;25631;51.516;-0.470;2023-03-29T01:26:25;101078.96;;;7.54;48.98
39954;BME280;25631;51.516;-0.470;2023-03-29T01:29:09;101071.33;;;7.56;48.91
39954;BME280;25631;51.516;-0.470;2023-03-29T01:31:51;101069.22;;;7.52;49.06
39954;BME280;25631;51.516;-0.470;2023-03-29T01:34:34;101065.48;;;7.71;49.13
39954;BME280;25631;51.516;-0.470;2023-03-29T01:37:17;101068.45;;;7.52;48.98
39954;BME280;25631;51.516;-0.470;2023-03-29T01:39:55;101066.76;;;7.78;49.12
39954;BME280;25631;51.516;-0.470;2023-03-29T01:42:39;101059.80;;;7.53;49.09
39954;BME280;25631;51.516;-0.470;2023-03-29T01:45:22;101052.61;;;7.85;48.99
39954;BME280;25631;51.516;-0.470;2023-03-29T01:48:03;101045.72;;;7.68;49.12
39954;BME280;25631;51.516;-0.470;2023-03-29T01:50:46;101032.66;;;7.88;48.99
39954;BME280;25631;51.516;-0.470;2023-03-29T01:53:28;101033.88;;;7.81;48.85
39954;BME280;25631;51.516;-0.470;2023-03-29T01:56:09;101039.48;;;8.09;48.85
39954;BME280;25631;51.516;-0.470;2023-03-29T01:58:48;101040.65;;;7.80;49.05
39954;BME280;25631;51.516;-0.470;2023-03-29T02:01:29;101040.02;;;7.84;49.13
39954;BME280;25631;51.516;-0.470;2023-03-29T02:04:11;101036.69;;;7.72;48.90
39954;BME280;25631;51.516;-0.470;2023-03-29T02:06:50;101039.36;;;7.61;49.00
39954;BME280;25631;51.516;-0.470;2023-03-29T02:09:28;101041.94;;;7.67;49.12
39954;BME280;25631;51.516;-0.470;2023-03-29T02:12:06;101041.48;;;7.75;49.23
39954;BME280;25631;51.516;-0.470;2023-03-29T02:14:44;101054.20;;;7.85;49.39
39954;BME280;25631;51.516;-0.470;2023-03-29T02:17:22;101054.13;;;7.57;49.53
39954;BME280;25631;51.516;-0.470;2023-03-29T02:20:01;101056.11;;;7.63;49.76
39954;BME280;25631;51.516;-0.470;2023-03-29T02:22:47;101052.74;;;7.69;49.77
39954;BME280;25631;51.516;-0.470;2023-03-29T02:25:24;101048.65;;;7.51;49.63
39954;BME280;25631;51.516;-0.470;2023-03-29T02:28:00;101049.86;;;7.77;49.69
39954;BME280;25631;51.516;-0.470;2023-03-29T02:30:44;101035.26;;;7.66;49.86
39954;BME280;25631;51.516;-0.470;2023-03-29T02:33:28;101031.53;;;7.48;49.82
39954;BME280;25631;51.516;-0.470;2023-03-29T02:36:13;101039.15;;;7.89;49.69
39954;BME280;25631;51.516;-0.470;2023-03-29T02:38:52;101035.79;;;7.80;49.84
39954;BME280;25631;51.516;-0.470;2023-03-29T02:41:30;101033.10;;;7.73;49.59
39954;BME280;25631;51.516;-0.470;2023-03-29T02:44:10;101031.46;;;7.84;49.47
39954;BME280;25631;51.516;-0.470;2023-03-29T02:46:49;101027.11;;;8.01;49.51
39954;BME280;25631;51.516;-0.470;2023-03-29T02:49:28;101021.44;;;7.44;49.36
39954;BME280;25631;51.516;-0.470;2023-03-29T02:52:09;101023.57;;;7.81;49.45
39954;BME280;25631;51.516;-0.470;2023-03-29T02:54:48;101024.99;;;7.53;49.62
39954;BME280;25631;51.516;-0.470;2023-03-29T02:57:26;101024.48;;;7.58;49.69
39954;BME280;25631;51.516;-0.470;2023-03-29T03:00:03;101022.69;;;8.02;49.52
39954;BME280;25631;51.516;-0.470;2023-03-29T03:02:39;101012.86;;;8.02;49.34
39954;BME280;25631;51.516;-0.470;2023-03-29T03:05:16;101013.17;;;7.93;49.18
39954;BME280;25631;51.516;-0.470;2023-03-29T03:07:52;101010.60;;;7.85;49.30
39954;BME280;25631;51.516;-0.470;2023-03-29T03:10:29;101006.13;;;7.97;49.22
39954;BME280;25631;51.516;-0.470;2023-03-29T03:13:05;101011.05;;;7.77;49.12
39954;BME280;25631;51.516;-0.470;2023-03-29T03:15:42;101012.54;;;8.42;48.99
39954;BME280;25631;51.516;-0.470;2023-03-29T03:18:18;101009.77;;;8.09;48.92
39954;BME280;25631;51.516;-0.470;2023-03-29T03:20:56;101001.94;;;8.31;48.68
39954;BME280;25631;51.516;-0.470;2023-03-29T03:23:32;100993.96;;;8.01;48.63
39954;BME280;25631;51.516;-0.470;2023-03-29T03:26:09;100986.51;;;8.22;48.56
39954;BME280;25631;51.516;-0.470;2023-03-29T03:28:45;100975.52;;;8.14;48.47
39954;BME280;25631;51.516;-0.470;2023-03-29T03:31:22;100978.31;;;8.46;48.43
39954;BME280;25631;51.516;-0.470;2023-03-29T03:33:58;100977.68;;;8.10;48.40
39954;BME280;25631;51.516;-0.470;2023-03-29T03:36:35;100978.34;;;7.89;48.46
39954;BME280;25631;51.516;-0.470;2023-03-29T03:39:11;100975.28;;;7.97;48.47
39954;BME280;25631;51.516;-0.470;2023-03-29T03:41:48;100973.54;;;8.09;48.50
39954;BME280;25631;51.516;-0.470;2023-03-29T03:44:24;100978.95;;;7.97;48.63
39954;BME280;25631;51.516;-0.470;2023-03-29T03:47:01;100976.65;;;8.01;48.48
39954;BME280;25631;51.516;-0.470;2023-03-29T03:49:37;100980.83;;;8.17;48.40
39954;BME280;25631;51.516;-0.470;2023-03-29T03:52:14;100988.06;;;8.02;48.43
39954;BME280;25631;51.516;-0.470;2023-03-29T03:54:50;100990.80;;;8.03;48.41
39954;BME280;25631;51.516;-0.470;2023-03-29T03:57:27;100985.27;;;7.86;48.28
39954;BME280;25631;51.516;-0.470;2023-03-29T04:00:04;100982.09;;;8.18;48.24
39954;BME280;25631;51.516;-0.470;2023-03-29T04:02:41;100983.04;;;8.04;48.26
39954;BME280;25631;51.516;-0.470;2023-03-29T04:05:17;100983.02;;;8.04;48.32
39954;BME280;25631;51.516;-0.470;2023-03-29T04:07:54;100978.72;;;8.21;48.25
39954;BME280;25631;51.516;-0.470;2023-03-29T04:10:30;100973.81;;;8.06;48.20
39954;BME280;25631;51.516;-0.470;2023-03-29T04:13:07;100966.88;;;8.09;48.15
39954;BME280;25631;51.516;-0.470;2023-03-29T04:15:43;100965.57;;;8.26;48.08
39954;BME280;25631;51.516;-0.470;2023-03-29T04:18:20;100961.88;;;8.36;47.99
39954;BME280;25631;51.516;-0.470;2023-03-29T04:20:56;100960.83;;;8.18;48.01
39954;BME280;25631;51.516;-0.470;2023-03-29T04:23:34;100956.44;;;8.15;47.97
39954;BME280;25631;51.516;-0.470;2023-03-29T04:26:12;100957.17;;;8.18;47.98
39954;BME280;25631;51.516;-0.470;2023-03-29T04:28:48;100956.74;;;8.41;48.11
39954;BME280;25631;51.516;-0.470;2023-03-29T04:31:24;100955.82;;;8.05;48.06
39954;BME280;25631;51.516;-0.470;2023-03-29T04:34:01;100957.77;;;8.13;48.07
39954;BME280;25631;51.516;-0.470;2023-03-29T04:36:38;100954.95;;;8.30;48.01
39954;BME280;25631;51.516;-0.470;2023-03-29T04:39:14;100951.28;;;8.19;47.92
39954;BME280;25631;51.516;-0.470;2023-03-29T04:41:51;100943.83;;;8.29;47.92
39954;BME280;25631;51.516;-0.470;2023-03-29T04:44:27;100943.53;;;8.14;48.00
39954;BME280;25631;51.516;-0.470;2023-03-29T04:47:04;100949.49;;;8.56;47.97
39954;BME280;25631;51.516;-0.470;2023-03-29T04:49:40;100953.91;;;8.15;47.92
39954;BME280;25631;51.516;-0.470;2023-03-29T04:52:17;100970.11;;;7.95;47.94
39954;BME280;25631;51.516;-0.470;2023-03-29T04:54:53;100970.98;;;7.71;48.17
39954;BME280;25631;51.516;-0.470;2023-03-29T04:57:30;100970.46;;;7.91;48.27
39954;BME280;25631;51.516;-0.470;2023-03-29T05:00:07;100963.00;;;7.86;48.50
39954;BME280;25631;51.516;-0.470;2023-03-29T05:02:45;100954.75;;;7.47;48.77
39954;BME280;25631;51.516;-0.470;2023-03-29T05:05:23;100948.06;;;7.48;48.70
39954;BME280;25631;51.516;-0.470;2023-03-29T05:07:59;100944.12;;;7.58;48.80
39954;BME280;25631;51.516;-0.470;2023-03-29T05:10:36;100947.41;;;7.72;48.72
39954;BME280;25631;51.516;-0.470;2023-03-29T05:13:12;100952.01;;;7.30;48.89
39954;BME280;25631;51.516;-0.470;2023-03-29T05:15:49;100950.76;;;7.68;48.80
39954;BME280;25631;51.516;-0.470;2023-03-29T05:18:26;100955.15;;;7.85;48.75
39954;BME280;25631;51.516;-0.470;2023-03-29T05:21:02;100948.75;;;7.38;48.73
39954;BME280;25631;51.516;-0.470;2023-03-29T05:23:39;100950.13;;;7.69;48.74
39954;BME280;25631;51.516;-0.470;2023-03-29T05:26:16;100942.92;;;7.83;48.66
39954;BME280;25631;51.516;-0.470;2023-03-29T05:28:53;100945.68;;;7.75;48.70
39954;BME280;25631;51.516;-0.470;2023-03-29T05:31:29;100951.40;;;7.65;48.95
39954;BME280;25631;51.516;-0.470;2023-03-29T05:34:06;100955.67;;;7.48;49.04
39954;BME280;25631;51.516;-0.470;2023-03-29T05:36:42;100956.54;;;7.54;49.10
39954;BME280;25631;51.516;-0.470;2023-03-29T05:39:19;100949.96;;;7.69;48.92
39954;BME280;25631;51.516;-0.470;2023-03-29T05:41:55;100947.16;;;7.66;48.91
39954;BME280;25631;51.516;-0.470;2023-03-29T05:44:32;100947.35;;;7.89;48.93
39954;BME280;25631;51.516;-0.470;2023-03-29T05:47:08;100936.30;;;7.49;48.81
39954;BME280;25631;51.516;-0.470;2023-03-29T05:49:45;100943.41;;;7.42;48.95
39954;BME280;25631;51.516;-0.470;2023-03-29T05:52:22;100944.88;;;7.47;48.80
39954;BME280;25631;51.516;-0.470;2023-03-29T05:54:59;100937.13;;;7.96;48.79
39954;BME280;25631;51.516;-0.470;2023-03-29T05:57:35;100943.12;;;7.29;49.03
39954;BME280;25631;51.516;-0.470;2023-03-29T06:00:13;100962.59;;;7.68;48.94
39954;BME280;25631;51.516;-0.470;2023-03-29T06:02:50;100971.53;;;7.81;48.95
39954;BME280;25631;51.516;-0.470;2023-03-29T06:05:26;100971.54;;;7.99;48.84
39954;BME280;25631;51.516;-0.470;2023-03-29T06:08:03;100951.06;;;7.81;48.87
39954;BME280;25631;51.516;-0.470;2023-03-29T06:10:40;100930.06;;;8.01;48.78
39954;BME280;25631;51.516;-0.470;2023-03-29T06:13:17;100941.73;;;7.82;48.95
39954;BME280;25631;51.516;-0.470;2023-03-29T06:15:53;100948.38;;;7.68;48.92
39954;BME280;25631;51.516;-0.470;2023-03-29T06:18:31;100951.28;;;7.39;49.10
39954;BME280;25631;51.516;-0.470;2023-03-29T06:21:07;100953.50;;;7.61;49.19
39954;BME280;25631;51.516;-0.470;2023-03-29T06:23:44;100951.78;;;7.71;49.20
39954;BME280;25631;51.516;-0.470;2023-03-29T06:26:20;100947.27;;;7.80;49.22
39954;BME280;25631;51.516;-0.470;2023-03-29T06:28:56;100945.31;;;7.47;49.31
39954;BME280;25631;51.516;-0.470;2023-03-29T06:31:33;100936.23;;;7.99;49.35
39954;BME280;25631;51.516;-0.470;2023-03-29T06:34:15;100927.11;;;8.13;49.18
39954;BME280;25631;51.516;-0.470;2023-03-29T06:36:51;100923.33;;;7.90;49.13
39954;BME280;25631;51.516;-0.470;2023-03-29T06:39:28;100919.27;;;7.87;49.00
39954;BME280;25631;51.516;-0.470;2023-03-29T06:42:04;100911.75;;;8.07;48.90
39954;BME280;25631;51.516;-0.470;2023-03-29T06:44:41;100908.15;;;7.97;48.90
39954;BME280;25631;51.516;-0.470;2023-03-29T06:47:17;100915.03;;;8.44;48.91
39954;BME280;25631;51.516;-0.470;2023-03-29T06:49:55;100916.54;;;7.96;48.92
39954;BME280;25631;51.516;-0.470;2023-03-29T06:52:32;100913.15;;;8.07;48.87
39954;BME280;25631;51.516;-0.470;2023-03-29T06:55:09;100913.00;;;8.29;48.77
39954;BME280;25631;51.516;-0.470;2023-03-29T06:57:49;100914.78;;;8.28;48.69
39954;BME280;25631;51.516;-0.470;2023-03-29T07:00:26;100920.81;;;8.20;48.75
39954;BME280;25631;51.516;-0.470;2023-03-29T07:03:05;100918.36;;;8.37;48.73
39954;BME280;25631;51.516;-0.470;2023-03-29T07:05:42;100928.97;;;8.29;48.74
39954;BME280;25631;51.516;-0.470;2023-03-29T07:08:18;100931.66;;;8.28;48.66
39954;BME280;25631;51.516;-0.470;2023-03-29T07:10:54;100930.26;;;8.18;48.73
39954;BME280;25631;51.516;-0.470;2023-03-29T07:13:31;100929.24;;;8.18;48.77
39954;BME280;25631;51.516;-0.470;2023-03-29T07:16:08;100932.30;;;8.16;48.70
39954;BME280;25631;51.516;-0.470;2023-03-29T07:18:45;100933.90;;;8.32;48.68
39954;BME280;25631;51.516;-0.470;2023-03-29T07:21:21;100931.40;;;8.30;48.66
39954;BME280;25631;51.516;-0.470;2023-03-29T07:23:58;100935.60;;;8.23;48.76
39954;BME280;25631;51.516;-0.470;2023-03-29T07:26:34;100938.00;;;8.41;48.65
39954;BME280;25631;51.516;-0.470;2023-03-29T07:29:11;100930.49;;;8.50;48.64
39954;BME280;25631;51.516;-0.470;2023-03-29T07:31:47;100936.70;;;8.55;48.59
39954;BME280;25631;51.516;-0.470;2023-03-29T07:34:24;100931.08;;;8.19;48.71
39954;BME280;25631;51.516;-0.470;2023-03-29T07:37:00;100932.21;;;8.36;48.77
39954;BME280;25631;51.516;-0.470;2023-03-29T07:39:37;100929.87;;;8.35;48.80
39954;BME280;25631;51.516;-0.470;2023-03-29T07:42:13;100926.68;;;8.22;48.77
39954;BME280;25631;51.516;-0.470;2023-03-29T07:44:50;100914.51;;;8.50;48.71
39954;BME280;25631;51.516;-0.470;2023-03-29T07:47:26;100899.49;;;8.59;48.71
39954;BME280;25631;51.516;-0.470;2023-03-29T07:50:03;100893.79;;;8.75;48.65
39954;BME280;25631;51.516;-0.470;2023-03-29T07:52:40;100903.42;;;8.83;48.68
39954;BME280;25631;51.516;-0.470;2023-03-29T07:55:17;100895.67;;;8.49;48.61
39954;BME280;25631;51.516;-0.470;2023-03-29T07:57:54;100885.01;;;8.61;48.63
39954;BME280;25631;51.516;-0.470;2023-03-29T08:00:31;100888.44;;;8.58;48.59
39954;BME280;25631;51.516;-0.470;2023-03-29T08:03:10;100888.34;;;8.47;48.61
39954;BME280;25631;51.516;-0.470;2023-03-29T08:05:47;100881.64;;;8.71;48.61
39954;BME280;25631;51.516;-0.470;2023-03-29T08:08:23;100875.14;;;8.85;48.49
39954;BME280;25631;51.516;-0.470;2023-03-29T08:11:00;100873.15;;;8.89;48.48
39954;BME280;25631;51.516;-0.470;2023-03-29T08:13:36;100886.02;;;9.01;48.51
39954;BME280;25631;51.516;-0.470;2023-03-29T08:16:12;100886.61;;;8.87;48.58
39954;BME280;25631;51.516;-0.470;2023-03-29T08:18:49;100877.30;;;8.61;48.52
39954;BME280;25631;51.516;-0.470;2023-03-29T08:21:26;100877.91;;;9.02;48.59
39954;BME280;25631;51.516;-0.470;2023-03-29T08:24:02;100880.04;;;8.79;48.68
39954;BME280;25631;51.516;-0.470;2023-03-29T08:26:39;100886.06;;;8.98;48.88
39954;BME280;25631;51.516;-0.470;2023-03-29T08:29:15;100878.09;;;8.88;48.93
39954;BME280;25631;51.516;-0.470;2023-03-29T08:31:52;100878.14;;;8.79;49.07
39954;BME280;25631;51.516;-0.470;2023-03-29T08:34:28;100877.83;;;8.95;49.10
39954;BME280;25631;51.516;-0.470;2023-03-29T08:37:05;100869.19;;;8.93;49.32
39954;BME280;25631;51.516;-0.470;2023-03-29T08:39:42;100862.41;;;8.88;49.31
39954;BME280;25631;51.516;-0.470;2023-03-29T08:42:30;100856.67;;;8.66;49.36
39954;BME280;25631;51.516;-0.470;2023-03-29T08:45:12;100853.71;;;8.84;49.40
39954;BME280;25631;51.516;-0.470;2023-03-29T08:47:59;100853.31;;;8.76;49.48
39954;BME280;25631;51.516;-0.470;2023-03-29T08:50:39;100848.75;;;8.89;49.68
39954;BME280;25631;51.516;-0.470;2023-03-29T08:53:19;100840.32;;;8.47;49.91
39954;BME280;25631;51.516;-0.470;2023-03-29T08:56:00;100838.56;;;8.49;50.09
39954;BME280;25631;51.516;-0.470;2023-03-29T08:58:38;100836.00;;;8.80;50.22
39954;BME280;25631;51.516;-0.470;2023-03-29T09:01:14;100828.36;;;8.52;50.37
39954;BME280;25631;51.516;-0.470;2023-03-29T09:04:01;100836.88;;;8.95;50.37
39954;BME280;25631;51.516;-0.470;2023-03-29T09:06:39;100821.11;;;8.69;50.51
39954;BME280;25631;51.516;-0.470;2023-03-29T09:09:17;100816.42;;;8.83;50.34
39954;BME280;25631;51.516;-0.470;2023-03-29T09:12:04;100819.52;;;6.26;50.10
39954;BME280;25631;51.516;-0.470;2023-03-29T09:14:51;100817.21;;;5.66;48.59
39954;BME280;25631;51.516;-0.470;2023-03-29T09:17:45;100822.56;;;5.14;46.31
39954;BME280;25631;51.516;-0.470;2023-03-29T09:20:31;100818.44;;;8.78;44.78
39954;BME280;25631;51.516;-0.470;2023-03-29T09:23:26;100821.12;;;7.18;45.75
39954;BME280;25631;51.516;-0.470;2023-03-29T09:26:08;100810.18;;;7.14;44.68
39954;BME280;25631;51.516;-0.470;2023-03-29T09:28:56;100801.70;;;7.85;44.25
39954;BME280;25631;51.516;-0.470;2023-03-29T09:31:38;100793.85;;;8.92;44.29
39954;BME280;25631;51.516;-0.470;2023-03-29T09:35:56;100787.58;;;10.05;45.83
39954;BME280;25631;51.516;-0.470;2023-03-29T09:38:39;100784.43;;;9.97;46.45
39954;BME280;25631;51.516;-0.470;2023-03-29T09:41:21;100783.43;;;10.10;46.69
39954;BME280;25631;51.516;-0.470;2023-03-29T09:44:04;100791.45;;;10.07;46.92
39954;BME280;25631;51.516;-0.470;2023-03-29T09:46:44;100793.04;;;10.21;46.98
39954;BME280;25631;51.516;-0.470;2023-03-29T09:49:25;100780.22;;;10.27;47.23
39954;BME280;25631;51.516;-0.470;2023-03-29T09:52:07;100771.92;;;10.35;47.32
39954;BME280;25631;51.516;-0.470;2023-03-29T09:54:46;100763.57;;;10.16;47.38
39954;BME280;25631;51.516;-0.470;2023-03-29T09:57:25;100747.33;;;10.03;47.57
39954;BME280;25631;51.516;-0.470;2023-03-29T10:00:04;100755.34;;;10.51;47.50
39954;BME280;25631;51.516;-0.470;2023-03-29T10:02:41;100751.69;;;10.20;47.52
39954;BME280;25631;51.516;-0.470;2023-03-29T10:05:17;100755.27;;;10.43;47.42
39954;BME280;25631;51.516;-0.470;2023-03-29T10:07:57;100752.63;;;10.61;47.29
39954;BME280;25631;51.516;-0.470;2023-03-29T10:10:35;100745.16;;;10.41;47.24
39954;BME280;25631;51.516;-0.470;2023-03-29T10:13:15;100746.11;;;10.54;47.08
39954;BME280;25631;51.516;-0.470;2023-03-29T10:15:59;100749.47;;;10.69;47.00
39954;BME280;25631;51.516;-0.470;2023-03-29T10:18:40;100751.85;;;10.26;47.17
39954;BME280;25631;51.516;-0.470;2023-03-29T10:21:18;100749.41;;;10.71;47.12
39954;BME280;25631;51.516;-0.470;2023-03-29T10:23:57;100751.87;;;10.49;47.27
39954;BME280;25631;51.516;-0.470;2023-03-29T10:26:35;100750.47;;;10.77;47.19
39954;BME280;25631;51.516;-0.470;2023-03-29T10:29:12;100748.41;;;10.85;47.34
39954;BME280;25631;51.516;-0.470;2023-03-29T10:31:49;100742.21;;;10.62;47.62
39954;BME280;25631;51.516;-0.470;2023-03-29T10:34:26;100740.21;;;10.45;47.71
39954;BME280;25631;51.516;-0.470;2023-03-29T10:37:02;100744.82;;;10.72;47.95
39954;BME280;25631;51.516;-0.470;2023-03-29T10:39:39;100741.62;;;10.32;48.10
39954;BME280;25631;51.516;-0.470;2023-03-29T10:42:18;100735.20;;;10.36;48.16
39954;BME280;25631;51.516;-0.470;2023-03-29T10:44:58;100725.53;;;10.55;47.96
39954;BME280;25631;51.516;-0.470;2023-03-29T10:47:35;100715.70;;;10.85;48.02
39954;BME280;25631;51.516;-0.470;2023-03-29T10:50:14;100704.37;;;10.77;48.24
39954;BME280;25631;51.516;-0.470;2023-03-29T10:52:51;100698.00;;;10.77;48.39
39954;BME280;25631;51.516;-0.470;2023-03-29T10:55:33;100700.06;;;11.00;48.69
39954;BME280;25631;51.516;-0.470;2023-03-29T10:58:23;100698.11;;;10.73;48.67
39954;BME280;25631;51.516;-0.470;2023-03-29T11:01:04;100698.01;;;10.69;48.80
39954;BME280;25631;51.516;-0.470;2023-03-29T11:04:01;100682.95;;;10.66;48.93
39954;BME280;25631;51.516;-0.470;2023-03-29T11:06:45;100681.72;;;10.60;49.11
39954;BME280;25631;51.516;-0.470;2023-03-29T11:09:32;100674.62;;;10.85;49.28
39954;BME280;25631;51.516;-0.470;2023-03-29T11:12:15;100674.91;;;10.85;49.34
39954;BME280;25631;51.516;-0.470;2023-03-29T11:15:02;100676.05;;;10.85;49.33
39954;BME280;25631;51.516;-0.470;2023-03-29T11:17:54;100677.20;;;10.78;49.39
39954;BME280;25631;51.516;-0.470;2023-03-29T11:20:38;100676.94;;;10.99;49.47
39954;BME280;25631;51.516;-0.470;2023-03-29T11:23:26;100675.70;;;10.93;49.49
39954;BME280;25631;51.516;-0.470;2023-03-29T11:26:14;100670.65;;;10.76;49.73
39954;BME280;25631;51.516;-0.470;2023-03-29T11:28:56;100661.73;;;10.82;49.66
39954;BME280;25631;51.516;-0.470;2023-03-29T11:31:42;100657.05;;;10.75;49.60
39954;BME280;25631;51.516;-0.470;2023-03-29T11:34:27;100651.39;;;10.90;49.54
39954;BME280;25631;51.516;-0.470;2023-03-29T11:37:14;100661.18;;;11.03;49.59
39954;BME280;25631;51.516;-0.470;2023-03-29T11:40:04;100666.46;;;10.78;49.90
39954;BME280;25631;51.516;-0.470;2023-03-29T11:42:47;100659.81;;;10.60;50.44
39954;BME280;25631;51.516;-0.470;2023-03-29T11:45:31;100659.25;;;10.73;50.41
39954;BME280;25631;51.516;-0.470;2023-03-29T11:48:13;100648.14;;;10.71;50.52
39954;BME280;25631;51.516;-0.470;2023-03-29T11:50:53;100646.34;;;10.82;50.26
39954;BME280;25631;51.516;-0.470;2023-03-29T11:53:37;100642.70;;;11.12;50.05
39954;BME280;25631;51.516;-0.470;2023-03-29T11:56:21;100655.03;;;11.18;49.86
39954;BME280;25631;51.516;-0.470;2023-03-29T11:59:05;100652.74;;;11.10;49.57
39954;BME280;25631;51.516;-0.470;2023-03-29T12:01:49;100651.04;;;11.25;49.56
39954;BME280;25631;51.516;-0.470;2023-03-29T12:04:31;100655.78;;;10.90;49.52
39954;BME280;25631;51.516;-0.470;2023-03-29T12:07:13;100659.38;;;10.58;49.26
39954;BME280;25631;51.516;-0.470;2023-03-29T12:09:53;100663.30;;;8.92;49.25
39954;BME280;25631;51.516;-0.470;2023-03-29T12:12:43;100666.34;;;10.89;48.76
39954;BME280;25631;51.516;-0.470;2023-03-29T12:15:23;100652.82;;;11.02;48.69
39954;BME280;25631;51.516;-0.470;2023-03-29T12:18:09;100647.81;;;10.90;48.67
39954;BME280;25631;51.516;-0.470;2023-03-29T12:20:51;100650.31;;;11.05;48.78
39954;BME280;25631;51.516;-0.470;2023-03-29T12:23:29;100639.58;;;10.84;48.67
39954;BME280;25631;51.516;-0.470;2023-03-29T12:26:15;100643.69;;;11.41;48.53
39954;BME280;25631;51.516;-0.470;2023-03-29T12:29:07;100626.67;;;11.28;48.13
39954;BME280;25631;51.516;-0.470;2023-03-29T12:31:52;100621.47;;;11.04;47.92
39954;BME280;25631;51.516;-0.470;2023-03-29T12:34:44;100620.62;;;11.22;47.79
39954;BME280;25631;51.516;-0.470;2023-03-29T12:37:35;100613.77;;;11.26;47.36
39954;BME280;25631;51.516;-0.470;2023-03-29T12:40:17;100596.15;;;11.60;47.18
39954;BME280;25631;51.516;-0.470;2023-03-29T12:43:01;100606.78;;;11.85;47.04
39954;BME280;25631;51.516;-0.470;2023-03-29T12:45:41;100600.78;;;11.38;46.91
39954;BME280;25631;51.516;-0.470;2023-03-29T12:48:22;100597.41;;;11.51;46.77
39954;BME280;25631;51.516;-0.470;2023-03-29T12:51:01;100589.51;;;11.33;46.71
39954;BME280;25631;51.516;-0.470;2023-03-29T12:53:40;100597.65;;;11.53;46.65
39954;BME280;25631;51.516;-0.470;2023-03-29T12:56:20;100591.59;;;11.42;46.57
39954;BME280;25631;51.516;-0.470;2023-03-29T12:59:14;100617.44;;;11.20;46.51
39954;BME280;25631;51.516;-0.470;2023-03-29T13:01:58;100605.52;;;11.01;46.89
39954;BME280;25631;51.516;-0.470;2023-03-29T13:04:37;100592.49;;;11.06;46.60
39954;BME280;25631;51.516;-0.470;2023-03-29T13:07:43;100585.69;;;11.22;46.28
39954;BME280;25631;51.516;-0.470;2023-03-29T13:10:39;100595.09;;;11.24;46.45
39954;BME280;25631;51.516;-0.470;2023-03-29T13:13:20;100593.64;;;10.99;46.66
39954;BME280;25631;51.516;-0.470;2023-03-29T13:16:16;100591.68;;;11.36;46.45
39954;BME280;25631;51.516;-0.470;2023-03-29T13:19:02;100578.95;;;11.56;46.31
39954;BME280;25631;51.516;-0.470;2023-03-29T13:21:49;100573.87;;;11.54;46.06
39954;BME280;25631;51.516;-0.470;2023-03-29T13:24:40;100567.33;;;11.49;46.00
39954;BME280;25631;51.516;-0.470;2023-03-29T13:27:30;100563.99;;;11.60;45.95
39954;BME280;25631;51.516;-0.470;2023-03-29T13:30:19;100560.07;;;11.67;45.92
39954;BME280;25631;51.516;-0.470;2023-03-29T13:33:10;100556.01;;;11.63;45.64
39954;BME280;25631;51.516;-0.470;2023-03-29T13:35:54;100554.47;;;11.53;45.70
39954;BME280;25631;51.516;-0.470;2023-03-29T13:38:43;100543.92;;;11.19;45.70
39954;BME280;25631;51.516;-0.470;2023-03-29T13:41:27;100547.19;;;11.35;45.65
39954;BME280;25631;51.516;-0.470;2023-03-29T13:44:24;100537.58;;;11.31;45.73
39954;BME280;25631;51.516;-0.470;2023-03-29T13:47:12;100523.25;;;11.69;45.60
39954;BME280;25631;51.516;-0.470;2023-03-29T13:49:53;100527.75;;;11.17;45.75
39954;BME280;25631;51.516;-0.470;2023-03-29T13:52:34;100521.80;;;11.09;45.62
39954;BME280;25631;51.516;-0.470;2023-03-29T13:55:16;100526.97;;;11.73;45.33